Time;durP1;ratioP1;P1;durP2;ratioP2;P2;SDS_P1;SDS_P2;PMS_P1;PMS_P2;Temp;Humidity;BMP_temperature;BMP_pressure;BME280_temperature;BME280_humidity;BME280_pressure;Samples;Min_cycle;Max_cycle;Signal;HPM_P1;HPM_P2
2020/12/24 00:00:59;;;;;;;2.27;2.07;;;6.20;99.90;;;;;;5042638;28;20173;-81
2020/12/24 00:03:25;;;;;;;2.33;2.23;;;6.20;99.90;;;;;;5048152;28;20189;-81
2020/12/24 00:05:51;;;;;;;1.90;1.80;;;6.20;99.90;;;;;;5041653;28;20182;-81
2020/12/24 00:08:16;;;;;;;2.23;2.13;;;6.20;99.90;;;;;;5042904;28;20196;-80
2020/12/24 00:10:42;;;;;;;2.80;2.70;;;6.20;99.90;;;;;;5043418;28;20261;-80
2020/12/24 00:13:08;;;;;;;2.40;2.30;;;6.30;99.90;;;;;;5047276;28;20262;-79
2020/12/24 00:15:33;;;;;;;2.60;2.50;;;6.20;99.90;;;;;;5041740;28;20234;-80
2020/12/24 00:17:59;;;;;;;3.13;2.83;;;6.20;99.90;;;;;;5039326;28;20190;-80
2020/12/24 00:20:25;;;;;;;2.83;2.73;;;6.20;99.90;;;;;;5040677;28;20173;-80
2020/12/24 00:22:50;;;;;;;2.67;2.47;;;6.20;99.90;;;;;;5040477;28;20184;-80
2020/12/24 00:25:16;;;;;;;2.80;2.60;;;6.20;99.90;;;;;;5038303;28;20741;-80
2020/12/24 00:27:42;;;;;;;2.40;2.20;;;6.20;99.90;;;;;;5039080;28;20182;-80
2020/12/24 00:30:08;;;;;;;3.10;2.90;;;6.20;99.90;;;;;;5052157;28;20257;-80
2020/12/24 00:32:33;;;;;;;2.50;2.40;;;6.20;99.90;;;;;;5038153;28;20192;-80
2020/12/24 00:34:59;;;;;;;2.90;2.70;;;6.20;99.90;;;;;;5039141;28;20200;-80
2020/12/24 00:37:25;;;;;;;2.97;2.77;;;6.20;99.90;;;;;;5037104;28;20176;-80
2020/12/24 00:39:51;;;;;;;2.83;2.53;;;6.10;99.90;;;;;;5036781;28;20633;-80
2020/12/24 00:42:16;;;;;;;3.40;3.10;;;6.10;99.90;;;;;;5036942;28;20181;-79
2020/12/24 00:44:42;;;;;;;2.80;2.63;;;6.00;99.90;;;;;;5038664;28;20185;-79
2020/12/24 00:47:08;;;;;;;3.13;2.83;;;6.00;99.90;;;;;;5037124;28;20178;-80
2020/12/24 00:49:34;;;;;;;3.30;3.10;;;6.00;99.90;;;;;;5037446;28;20515;-80
2020/12/24 00:51:59;;;;;;;3.40;3.20;;;6.00;99.90;;;;;;5054872;28;20205;-80
2020/12/24 00:54:25;;;;;;;3.10;2.90;;;6.00;99.90;;;;;;5039002;28;20188;-80
2020/12/24 00:56:51;;;;;;;3.10;2.73;;;6.00;99.90;;;;;;5039571;28;20212;-80
2020/12/24 00:59:18;;;;;;;3.43;3.13;;;6.00;99.90;;;;;;5040817;28;20189;-80
2020/12/24 01:01:44;;;;;;;3.17;2.87;;;6.10;99.90;;;;;;5039044;28;20178;-80
2020/12/24 01:04:09;;;;;;;4.50;3.77;;;6.00;99.90;;;;;;5039074;28;20490;-80
2020/12/24 01:06:35;;;;;;;3.70;3.40;;;5.90;99.90;;;;;;5040311;28;20532;-81
2020/12/24 01:09:01;;;;;;;3.40;3.20;;;5.90;99.90;;;;;;5038076;28;20200;-80
2020/12/24 01:14:02;;;;;;;3.60;3.30;;;6.00;99.90;;;;;;5167007;22;20516;-79
2020/12/24 01:16:28;;;;;;;5.13;3.50;;;6.00;99.90;;;;;;5069259;28;20886;-79
2020/12/24 01:18:54;;;;;;;5.07;4.47;;;6.00;99.90;;;;;;5066132;28;20172;-79
2020/12/24 01:21:19;;;;;;;5.80;4.03;;;5.90;99.90;;;;;;5069372;28;20252;-79
2020/12/24 01:23:45;;;;;;;5.13;3.70;;;6.00;99.90;;;;;;5050917;28;20185;-79
2020/12/24 01:26:11;;;;;;;4.30;3.90;;;5.90;99.90;;;;;;5068877;28;20222;-79
2020/12/24 01:28:37;;;;;;;4.37;3.97;;;6.00;99.90;;;;;;5061570;28;20617;-79
2020/12/24 01:31:04;;;;;;;5.10;4.60;;;5.90;99.90;;;;;;5068125;28;20282;-79
2020/12/24 01:33:30;;;;;;;4.93;4.50;;;6.00;99.90;;;;;;5062885;28;20331;-79
2020/12/24 01:35:58;;;;;;;7.33;4.80;;;6.00;99.90;;;;;;5048990;28;20510;-79
2020/12/24 01:38:24;;;;;;;5.90;4.13;;;5.90;99.90;;;;;;5070863;28;20505;-79
2020/12/24 01:40:59;;;;;;;5.80;4.70;;;5.90;99.90;;;;;;5066822;28;20434;-79
2020/12/24 01:43:25;;;;;;;5.00;4.50;;;5.80;99.90;;;;;;5063879;28;20762;-79
2020/12/24 01:45:54;;;;;;;4.07;3.67;;;5.70;99.90;;;;;;5052519;28;20446;-79
2020/12/24 01:48:21;;;;;;;5.37;4.77;;;5.70;99.90;;;;;;5048716;28;20438;-79
2020/12/24 01:50:47;;;;;;;6.80;3.60;;;5.70;99.90;;;;;;5071463;28;20427;-79
2020/12/24 01:53:24;;;;;;;6.50;3.37;;;5.70;99.90;;;;;;5069875;28;20515;-78
2020/12/24 01:55:51;;;;;;;4.13;3.43;;;5.70;99.90;;;;;;5032719;28;20941;-79
2020/12/24 01:58:18;;;;;;;3.13;2.93;;;5.70;99.90;;;;;;5069166;28;20778;-79
2020/12/24 02:00:48;;;;;;;3.23;3.03;;;5.70;99.90;;;;;;5071271;28;20850;-79
2020/12/24 02:03:14;;;;;;;3.57;2.50;;;5.70;99.90;;;;;;5072346;28;21027;-79
2020/12/24 02:05:41;;;;;;;3.73;2.50;;;5.70;99.90;;;;;;5071245;28;20801;-78
2020/12/24 02:08:07;;;;;;;2.43;2.23;;;5.60;99.90;;;;;;5070654;28;20775;-79
2020/12/24 02:10:33;;;;;;;2.53;1.90;;;5.60;99.90;;;;;;5074438;28;20980;-79
2020/12/24 02:12:59;;;;;;;2.53;2.13;;;5.60;99.90;;;;;;5069834;28;20449;-79
2020/12/24 02:15:25;;;;;;;2.00;1.90;;;5.60;99.90;;;;;;5071822;28;20188;-79
2020/12/24 02:17:50;;;;;;;2.77;2.07;;;5.60;99.90;;;;;;5049480;28;20173;-79
2020/12/24 02:20:16;;;;;;;1.53;1.43;;;5.60;99.90;;;;;;5071784;28;20259;-79
2020/12/24 02:22:42;;;;;;;1.80;1.70;;;5.50;99.90;;;;;;5071865;28;20184;-79
2020/12/24 02:25:08;;;;;;;2.23;1.90;;;5.50;99.90;;;;;;5073308;28;20905;-79
2020/12/24 02:27:33;;;;;;;1.73;1.63;;;5.50;99.90;;;;;;5055906;28;20206;-79
2020/12/24 02:30:01;;;;;;;1.73;1.63;;;5.40;99.90;;;;;;5069415;28;20188;-79
2020/12/24 02:32:29;;;;;;;2.27;1.47;;;5.40;99.90;;;;;;5068498;28;20184;-78
2020/12/24 02:34:55;;;;;;;1.53;1.53;;;5.30;99.90;;;;;;5073562;28;20426;-80
2020/12/24 02:37:24;;;;;;;1.67;1.57;;;5.40;99.90;;;;;;5055308;28;20493;-81
2020/12/24 02:39:51;;;;;;;1.20;1.20;;;5.30;99.90;;;;;;5071529;28;23117;-81
2020/12/24 02:42:18;;;;;;;1.70;1.40;;;5.30;99.90;;;;;;5066674;28;20445;-81
2020/12/24 02:44:44;;;;;;;1.30;1.30;;;5.20;99.90;;;;;;5071368;28;20425;-81
2020/12/24 02:47:11;;;;;;;3.03;1.33;;;5.30;99.90;;;;;;5069407;28;20451;-81
2020/12/24 02:49:38;;;;;;;1.27;1.20;;;5.20;99.90;;;;;;5068737;28;20433;-81
2020/12/24 02:52:05;;;;;;;1.17;1.07;;;5.20;99.90;;;;;;5073420;28;20443;-81
2020/12/24 02:54:30;;;;;;;1.27;1.17;;;5.20;99.90;;;;;;5066083;28;20436;-80
2020/12/24 02:56:56;;;;;;;1.27;1.27;;;5.20;99.90;;;;;;5048240;28;20470;-81
2020/12/24 02:59:22;;;;;;;2.23;1.20;;;5.10;99.90;;;;;;5071945;28;20176;-81
2020/12/24 03:01:47;;;;;;;3.43;1.30;;;5.10;99.90;;;;;;5072397;28;20247;-81
2020/12/24 03:04:13;;;;;;;1.43;1.43;;;5.10;99.90;;;;;;5055775;28;20615;-80
2020/12/24 03:06:39;;;;;;;1.60;1.50;;;5.10;99.90;;;;;;5072422;28;20524;-80
2020/12/24 03:09:05;;;;;;;1.03;1.03;;;5.00;99.90;;;;;;5053442;28;20940;-80
2020/12/24 03:11:30;;;;;;;2.13;1.40;;;5.00;99.90;;;;;;5072351;28;20200;-80
2020/12/24 03:13:56;;;;;;;1.20;1.20;;;5.00;99.90;;;;;;5073190;28;20213;-81
2020/12/24 03:16:22;;;;;;;1.07;1.07;;;5.00;99.90;;;;;;5052533;28;20190;-81
2020/12/24 03:18:47;;;;;;;1.23;1.23;;;5.00;99.90;;;;;;5069936;28;20284;-81
2020/12/24 03:21:13;;;;;;;1.30;1.30;;;5.00;99.90;;;;;;5070842;28;20258;-81
2020/12/24 03:23:39;;;;;;;1.60;1.50;;;5.00;99.90;;;;;;5069361;28;20187;-81
2020/12/24 03:26:05;;;;;;;1.50;1.40;;;5.00;99.90;;;;;;5068834;28;20228;-81
2020/12/24 03:28:30;;;;;;;1.17;1.17;;;5.00;99.90;;;;;;5046463;28;20211;-80
2020/12/24 03:30:56;;;;;;;1.10;1.10;;;5.00;99.90;;;;;;5069764;28;20783;-80
2020/12/24 03:33:22;;;;;;;1.47;1.37;;;5.10;99.90;;;;;;5053025;28;20197;-80
2020/12/24 03:35:47;;;;;;;1.30;1.20;;;5.10;99.90;;;;;;5046047;28;20184;-80
2020/12/24 03:38:13;;;;;;;1.27;1.17;;;5.00;99.90;;;;;;5051519;28;20277;-80
2020/12/24 03:40:39;;;;;;;1.53;1.43;;;5.00;99.90;;;;;;5052207;28;20230;-80
2020/12/24 03:43:05;;;;;;;3.00;1.70;;;5.00;99.90;;;;;;5072536;28;20179;-80
2020/12/24 03:45:31;;;;;;;1.60;1.50;;;5.00;99.90;;;;;;5072481;28;20886;-80
2020/12/24 03:47:56;;;;;;;2.20;2.10;;;4.90;99.90;;;;;;5067183;28;20178;-80
2020/12/24 03:50:22;;;;;;;2.57;2.37;;;5.00;99.90;;;;;;5069504;28;20186;-80
2020/12/24 03:52:48;;;;;;;2.60;2.40;;;5.10;99.90;;;;;;5054876;28;20203;-80
2020/12/24 03:55:13;;;;;;;2.30;2.20;;;5.10;99.90;;;;;;5072320;28;20504;-80
2020/12/24 03:57:39;;;;;;;2.77;2.53;;;5.10;99.90;;;;;;5070534;28;20179;-80
2020/12/24 04:00:05;;;;;;;3.40;2.57;;;5.10;99.90;;;;;;5055464;28;20188;-80
2020/12/24 04:02:31;;;;;;;2.90;2.33;;;5.10;99.90;;;;;;5048941;28;20178;-80
2020/12/24 04:04:56;;;;;;;4.00;2.30;;;5.10;99.90;;;;;;5072872;28;20652;-80
2020/12/24 04:07:22;;;;;;;2.80;2.10;;;5.10;99.90;;;;;;5052797;28;20682;-80
2020/12/24 04:09:48;;;;;;;2.23;2.10;;;5.10;99.90;;;;;;5072930;28;20182;-80
2020/12/24 04:12:13;;;;;;;4.70;2.27;;;5.10;99.90;;;;;;5070168;28;20200;-80
2020/12/24 04:14:39;;;;;;;3.10;2.17;;;5.10;99.90;;;;;;5069801;28;20211;-80
2020/12/24 04:17:05;;;;;;;6.20;2.27;;;5.00;99.90;;;;;;5071385;28;20651;-80
2020/12/24 04:19:31;;;;;;;2.33;2.23;;;5.00;99.90;;;;;;5054183;28;20280;-80
2020/12/24 04:21:56;;;;;;;2.10;2.00;;;5.00;99.90;;;;;;5071116;28;20192;-80
2020/12/24 04:24:22;;;;;;;3.70;2.00;;;5.00;99.90;;;;;;5068475;28;20292;-80
2020/12/24 04:26:48;;;;;;;2.40;2.00;;;5.00;99.90;;;;;;5070463;28;20264;-80
2020/12/24 04:29:14;;;;;;;1.70;1.60;;;5.00;99.90;;;;;;5070425;28;20194;-80
2020/12/24 04:31:43;;;;;;;2.20;2.10;;;5.00;99.90;;;;;;5069794;28;20184;-80
2020/12/24 04:34:09;;;;;;;2.40;2.10;;;5.00;99.90;;;;;;5068401;28;20178;-80
2020/12/24 04:36:35;;;;;;;2.20;2.10;;;5.00;99.90;;;;;;5072237;28;20547;-80
2020/12/24 04:39:03;;;;;;;2.20;2.10;;;4.90;99.90;;;;;;5069528;28;20521;-80
2020/12/24 04:41:29;;;;;;;2.23;2.13;;;4.90;99.90;;;;;;5071832;28;20182;-80
2020/12/24 04:43:57;;;;;;;2.27;2.07;;;4.90;99.90;;;;;;5048949;28;20432;-80
2020/12/24 04:46:27;;;;;;;4.90;2.50;;;4.80;99.90;;;;;;5064118;28;20454;-80
2020/12/24 04:48:55;;;;;;;2.17;1.97;;;4.80;99.90;;;;;;5068873;28;20513;-80
2020/12/24 04:51:22;;;;;;;2.13;1.80;;;4.80;99.90;;;;;;5067523;28;20441;-80
2020/12/24 04:53:48;;;;;;;1.67;1.67;;;4.70;99.90;;;;;;5054433;28;20456;-80
2020/12/24 04:56:14;;;;;;;1.33;1.23;;;4.70;99.90;;;;;;5066105;28;20756;-80
2020/12/24 04:58:42;;;;;;;1.40;1.30;;;4.60;99.90;;;;;;5049188;28;20458;-80
2020/12/24 05:01:14;;;;;;;1.20;1.20;;;4.60;99.90;;;;;;5053140;28;20187;-80
2020/12/24 05:03:40;;;;;;;1.10;1.10;;;4.50;99.90;;;;;;5068007;28;20838;-80
2020/12/24 05:06:06;;;;;;;1.30;1.30;;;4.50;99.90;;;;;;5067489;28;20516;-80
2020/12/24 05:08:31;;;;;;;1.23;1.10;;;4.50;99.90;;;;;;5050645;28;20539;-80
2020/12/24 05:11:07;;;;;;;1.30;1.20;;;4.50;99.90;;;;;;5070195;28;20168;-81
2020/12/24 05:13:33;;;;;;;1.10;1.10;;;4.30;99.90;;;;;;5069086;28;20194;-80
2020/12/24 05:16:14;;;;;;;0.90;0.90;;;4.20;99.90;;;;;;5068251;28;20519;-81
2020/12/24 05:18:40;;;;;;;0.90;0.90;;;4.10;99.90;;;;;;5065502;28;20179;-80
2020/12/24 05:21:05;;;;;;;0.90;0.90;;;4.10;99.90;;;;;;5069997;28;20499;-80
2020/12/24 05:23:31;;;;;;;0.77;0.77;;;4.10;99.90;;;;;;5066579;28;20900;-80
2020/12/24 05:25:57;;;;;;;0.83;0.83;;;4.10;99.90;;;;;;5071318;28;20178;-80
2020/12/24 05:28:24;;;;;;;0.70;0.70;;;4.10;99.90;;;;;;5068244;28;20234;-81
2020/12/24 05:30:51;;;;;;;0.70;0.70;;;4.10;99.90;;;;;;5050171;28;20182;-80
2020/12/24 05:33:33;;;;;;;0.80;0.80;;;3.90;99.90;;;;;;5064669;28;20450;-80
2020/12/24 05:36:19;;;;;;;1.73;0.80;;;3.80;99.90;;;;;;5070867;28;20745;-80
2020/12/24 05:38:46;;;;;;;0.80;0.80;;;3.70;99.90;;;;;;5062733;28;20427;-81
2020/12/24 05:41:30;;;;;;;0.70;0.70;;;3.50;99.90;;;;;;5065204;28;20516;-79
2020/12/24 05:44:09;;;;;;;0.70;0.70;;;3.50;99.90;;;;;;5048594;28;20430;-81
2020/12/24 05:46:44;;;;;;;0.60;0.60;;;3.40;99.90;;;;;;5069506;28;20437;-81
2020/12/24 05:49:16;;;;;;;0.50;0.50;;;3.30;99.90;;;;;;5066866;28;20456;-81
2020/12/24 05:51:59;;;;;;;0.80;0.80;;;3.30;99.90;;;;;;5066718;28;20764;-81
2020/12/24 05:54:27;;;;;;;0.70;0.70;;;3.20;99.90;;;;;;5067143;28;20423;-81
2020/12/24 05:56:54;;;;;;;0.60;0.60;;;3.10;99.90;;;;;;5055016;28;20424;-81
2020/12/24 05:59:24;;;;;;;0.60;0.60;;;3.00;99.90;;;;;;5070828;28;20418;-81
2020/12/24 06:02:06;;;;;;;0.70;0.70;;;3.00;99.90;;;;;;5069941;28;20426;-81
2020/12/24 06:04:44;;;;;;;0.63;0.63;;;2.90;99.90;;;;;;5052255;28;20426;-81
2020/12/24 06:07:20;;;;;;;0.50;0.50;;;2.90;99.90;;;;;;5066241;28;20434;-81
2020/12/24 06:09:47;;;;;;;0.60;0.60;;;2.90;99.90;;;;;;5069477;28;20461;-81
2020/12/24 06:12:19;;;;;;;0.50;0.50;;;2.80;99.90;;;;;;5064968;28;20455;-81
2020/12/24 06:14:56;;;;;;;0.60;0.60;;;2.80;99.90;;;;;;5049405;28;20427;-81
2020/12/24 06:17:23;;;;;;;0.70;0.70;;;2.80;99.90;;;;;;5068372;28;20449;-81
2020/12/24 06:19:50;;;;;;;0.70;0.70;;;2.70;99.90;;;;;;5069925;28;20423;-81
2020/12/24 06:22:17;;;;;;;0.60;0.60;;;2.80;99.90;;;;;;5063416;28;20435;-81
2020/12/24 06:24:51;;;;;;;0.60;0.60;;;2.80;99.90;;;;;;5049261;28;20435;-81
2020/12/24 06:27:30;;;;;;;0.80;0.80;;;2.90;99.90;;;;;;5069397;28;20437;-81
2020/12/24 06:30:04;;;;;;;0.60;0.60;;;2.90;99.90;;;;;;5065376;28;20434;-81
2020/12/24 06:32:35;;;;;;;0.60;0.60;;;2.90;99.90;;;;;;5072679;28;20453;-81
2020/12/24 06:35:02;;;;;;;0.60;0.60;;;2.90;99.90;;;;;;5078418;28;20464;-81
2020/12/24 06:37:28;;;;;;;0.63;0.63;;;2.90;99.90;;;;;;5068089;28;20451;-81
2020/12/24 06:39:54;;;;;;;1.57;0.63;;;2.90;99.90;;;;;;5071801;28;20457;-81
2020/12/24 06:42:40;;;;;;;0.80;0.80;;;2.90;99.90;;;;;;5068939;28;20437;-81
2020/12/24 06:45:10;;;;;;;0.90;0.90;;;2.90;99.90;;;;;;5063084;28;20449;-81
2020/12/24 06:47:37;;;;;;;0.77;0.77;;;2.90;99.90;;;;;;5066485;28;20518;-81
2020/12/24 06:50:41;;;;;;;0.73;0.73;;;2.80;99.90;;;;;;5070525;28;20525;-81
2020/12/24 06:53:27;;;;;;;0.80;0.80;;;2.80;99.90;;;;;;5071189;28;20468;-80
2020/12/24 06:56:23;;;;;;;0.70;0.70;;;2.80;99.90;;;;;;5069511;28;20508;-80
2020/12/24 06:59:01;;;;;;;0.90;0.90;;;2.80;99.90;;;;;;5068983;28;20424;-80
2020/12/24 07:01:37;;;;;;;0.60;0.60;;;2.80;99.90;;;;;;5073244;28;20422;-80
2020/12/24 07:04:05;;;;;;;0.80;0.80;;;2.80;99.90;;;;;;5068779;28;20417;-81
2020/12/24 07:06:47;;;;;;;0.83;0.83;;;2.80;99.90;;;;;;5069578;28;20440;-80
2020/12/24 07:09:19;;;;;;;0.63;0.63;;;2.70;99.90;;;;;;5050168;28;20470;-80
2020/12/24 07:11:47;;;;;;;0.80;0.70;;;2.80;99.90;;;;;;5073290;28;20423;-81
2020/12/24 07:14:34;;;;;;;0.90;0.90;;;2.80;99.90;;;;;;5071524;28;20818;-81
2020/12/24 07:17:20;;;;;;;0.93;0.93;;;2.80;99.90;;;;;;5070726;28;20830;-80
2020/12/24 07:19:48;;;;;;;0.90;0.90;;;2.80;99.90;;;;;;5071938;28;20421;-81
2020/12/24 07:22:19;;;;;;;1.00;1.00;;;2.80;99.90;;;;;;5066336;28;20908;-80
2020/12/24 07:24:56;;;;;;;0.90;0.90;;;2.70;99.90;;;;;;5074304;28;20438;-80
2020/12/24 07:27:22;;;;;;;0.80;0.80;;;2.70;99.90;;;;;;5072522;28;20433;-81
2020/12/24 07:29:48;;;;;;;0.90;0.90;;;2.80;99.90;;;;;;5073860;28;20441;-81
2020/12/24 07:32:15;;;;;;;0.80;0.80;;;2.80;99.90;;;;;;5066655;28;21314;-81
2020/12/24 07:34:40;;;;;;;1.30;1.20;;;2.80;99.90;;;;;;5072443;28;20179;-81
2020/12/24 07:37:08;;;;;;;1.03;1.00;;;2.90;99.90;;;;;;5068612;28;20434;-80
2020/12/24 07:39:34;;;;;;;1.43;1.33;;;2.80;99.90;;;;;;5049568;28;20180;-80
2020/12/24 07:42:00;;;;;;;1.07;1.03;;;2.80;99.90;;;;;;5070563;28;20437;-80
2020/12/24 07:44:26;;;;;;;1.33;1.23;;;2.90;99.90;;;;;;5050426;28;20208;-80
2020/12/24 07:46:59;;;;;;;2.17;1.83;;;2.90;99.90;;;;;;5072244;28;20473;-80
2020/12/24 07:49:25;;;;;;;1.77;1.50;;;3.00;99.90;;;;;;5069092;28;20840;-80
2020/12/24 07:51:55;;;;;;;2.10;1.40;;;3.10;99.90;;;;;;5052979;28;20513;-80
2020/12/24 07:54:27;;;;;;;1.70;1.60;;;3.10;99.90;;;;;;5051926;28;20200;-80
2020/12/24 07:56:54;;;;;;;1.60;1.50;;;3.10;99.90;;;;;;5070411;28;20429;-80
2020/12/24 07:59:21;;;;;;;1.20;1.20;;;3.20;99.90;;;;;;5068869;28;20445;-80
2020/12/24 08:01:47;;;;;;;1.60;1.50;;;3.20;99.90;;;;;;5074457;28;20458;-80
2020/12/24 08:04:13;;;;;;;1.83;1.33;;;3.20;99.90;;;;;;5076680;28;20419;-80
2020/12/24 08:06:38;;;;;;;1.90;1.80;;;3.20;99.90;;;;;;5072168;28;20751;-80
2020/12/24 08:09:09;;;;;;;1.77;1.67;;;3.20;99.90;;;;;;5075197;28;20180;-80
2020/12/24 08:11:35;;;;;;;2.27;1.50;;;3.30;99.90;;;;;;5053166;28;20173;-80
2020/12/24 08:14:00;;;;;;;3.53;1.70;;;3.30;99.90;;;;;;5049317;28;20918;-80
2020/12/24 08:16:28;;;;;;;2.90;1.50;;;3.30;99.90;;;;;;5068344;28;20481;-80
2020/12/24 08:19:02;;;;;;;1.60;1.50;;;3.40;99.90;;;;;;5052918;28;20259;-80
2020/12/24 08:21:33;;;;;;;3.10;1.70;;;3.50;99.90;;;;;;5068631;28;20450;-80
2020/12/24 08:24:04;;;;;;;2.17;1.60;;;3.50;99.90;;;;;;5053829;28;20422;-80
2020/12/24 08:26:33;;;;;;;2.00;1.37;;;3.60;99.90;;;;;;5069679;28;20808;-80
2020/12/24 08:29:06;;;;;;;1.73;1.63;;;3.50;99.90;;;;;;5066328;28;20460;-80
2020/12/24 08:31:36;;;;;;;2.50;2.33;;;3.50;99.90;;;;;;5049667;28;20462;-80
2020/12/24 08:34:05;;;;;;;2.30;2.10;;;3.50;99.90;;;;;;5065579;28;21201;-80
2020/12/24 08:36:31;;;;;;;1.93;1.83;;;3.60;99.90;;;;;;5064552;28;20423;-80
2020/12/24 08:39:06;;;;;;;2.27;2.17;;;3.70;99.90;;;;;;5067348;28;20489;-80
2020/12/24 08:41:35;;;;;;;4.03;2.33;;;3.60;99.90;;;;;;5070201;28;20236;-80
2020/12/24 08:44:04;;;;;;;2.20;2.10;;;3.70;99.90;;;;;;5069855;28;20435;-80
2020/12/24 08:46:30;;;;;;;2.83;2.63;;;3.70;99.90;;;;;;5068093;28;20454;-80
2020/12/24 08:48:55;;;;;;;2.33;2.23;;;3.70;99.90;;;;;;5068510;28;20459;-80
2020/12/24 08:51:22;;;;;;;3.97;2.93;;;3.80;99.90;;;;;;5068385;28;20267;-80
2020/12/24 08:53:49;;;;;;;3.20;2.60;;;3.80;99.90;;;;;;5065257;28;20197;-80
2020/12/24 08:56:20;;;;;;;3.67;2.53;;;3.80;99.90;;;;;;5052220;28;20496;-80
2020/12/24 08:58:53;;;;;;;2.53;2.33;;;3.90;99.90;;;;;;5068467;28;20428;-80
2020/12/24 09:01:20;;;;;;;2.47;2.27;;;3.90;99.90;;;;;;5069485;28;20487;-80
2020/12/24 09:03:47;;;;;;;3.07;2.23;;;3.90;99.90;;;;;;5048263;28;20445;-80
2020/12/24 09:06:15;;;;;;;2.43;2.20;;;4.00;99.90;;;;;;5064067;28;20866;-80
2020/12/24 09:08:41;;;;;;;1.80;1.70;;;4.00;99.90;;;;;;5065825;28;20911;-80
2020/12/24 09:11:27;;;;;;;2.30;2.10;;;4.10;99.90;;;;;;5068185;28;20972;-80
2020/12/24 09:14:04;;;;;;;2.47;2.30;;;4.10;99.90;;;;;;5050815;28;21010;-79
2020/12/24 09:16:32;;;;;;;3.63;2.57;;;4.10;99.90;;;;;;5067097;28;20441;-80
2020/12/24 09:19:04;;;;;;;3.33;3.03;;;4.10;99.90;;;;;;5047636;28;20448;-79
2020/12/24 09:21:32;;;;;;;3.07;2.57;;;4.10;99.90;;;;;;5066585;28;20502;-79
2020/12/24 09:24:09;;;;;;;3.60;3.03;;;4.10;99.90;;;;;;5065849;28;21859;-79
2020/12/24 09:27:00;;;;;;;5.43;3.50;;;4.10;99.90;;;;;;5066964;28;20452;-80
2020/12/24 09:29:27;;;;;;;3.50;3.20;;;4.10;99.90;;;;;;5059359;28;20448;-80
2020/12/24 09:31:57;;;;;;;3.43;2.93;;;4.10;99.90;;;;;;5065674;28;20440;-80
2020/12/24 09:34:24;;;;;;;2.17;2.03;;;4.10;99.90;;;;;;5065231;28;20426;-80
2020/12/24 09:36:50;;;;;;;5.67;2.90;;;4.10;99.90;;;;;;5065330;28;20445;-80
2020/12/24 09:39:17;;;;;;;2.80;2.60;;;4.10;99.90;;;;;;5065622;28;20431;-80
2020/12/24 09:41:44;;;;;;;3.10;2.80;;;4.10;99.90;;;;;;5068798;28;20743;-80
2020/12/24 09:44:11;;;;;;;2.90;2.37;;;4.10;99.90;;;;;;5064411;28;20774;-80
2020/12/24 09:46:37;;;;;;;2.57;2.23;;;4.20;99.90;;;;;;5070062;28;20434;-80
2020/12/24 09:49:03;;;;;;;3.57;2.13;;;4.20;99.90;;;;;;5066024;28;20424;-80
2020/12/24 09:51:37;;;;;;;2.40;2.20;;;4.20;99.90;;;;;;5065662;28;20527;-80
2020/12/24 09:54:04;;;;;;;6.00;2.43;;;4.20;99.90;;;;;;5047203;28;20477;-80
2020/12/24 09:56:31;;;;;;;3.73;2.50;;;4.20;99.90;;;;;;5069134;28;20881;-80
2020/12/24 09:58:57;;;;;;;4.13;2.60;;;4.20;99.90;;;;;;5056412;28;20943;-80
2020/12/24 10:01:23;;;;;;;2.53;2.00;;;4.20;99.90;;;;;;5070048;28;20429;-80
2020/12/24 10:03:48;;;;;;;2.80;2.10;;;4.20;99.90;;;;;;5070595;28;20538;-80
2020/12/24 10:06:15;;;;;;;3.83;1.80;;;4.30;99.90;;;;;;5051758;28;20179;-80
2020/12/24 10:08:41;;;;;;;1.60;1.50;;;4.40;99.90;;;;;;5071483;28;20183;-79
2020/12/24 10:11:14;;;;;;;3.37;2.07;;;4.50;99.90;;;;;;5047819;28;20438;-80
2020/12/24 10:13:40;;;;;;;3.10;2.40;;;4.50;99.90;;;;;;5069965;28;20470;-80
2020/12/24 10:16:06;;;;;;;2.73;2.53;;;4.60;99.90;;;;;;5061594;28;20437;-80
2020/12/24 10:18:32;;;;;;;2.30;2.20;;;4.60;99.90;;;;;;5046981;28;20440;-80
2020/12/24 10:20:58;;;;;;;2.43;2.23;;;4.60;99.90;;;;;;5068110;28;20434;-80
2020/12/24 10:23:24;;;;;;;3.73;3.43;;;4.60;99.90;;;;;;5068723;28;20511;-80
2020/12/24 10:25:50;;;;;;;2.80;2.60;;;4.70;99.90;;;;;;5072234;28;20439;-79
2020/12/24 10:28:16;;;;;;;3.97;2.73;;;4.70;99.90;;;;;;5072726;28;20179;-80
2020/12/24 10:30:45;;;;;;;6.80;3.10;;;4.80;99.90;;;;;;5073548;28;20193;-80
2020/12/24 10:33:11;;;;;;;3.73;3.13;;;4.80;99.90;;;;;;5070960;28;20538;-80
2020/12/24 10:35:40;;;;;;;3.20;3.00;;;4.80;99.90;;;;;;5074630;28;20525;-80
2020/12/24 10:38:06;;;;;;;2.83;2.63;;;4.70;99.90;;;;;;5069216;28;20454;-80
2020/12/24 10:40:32;;;;;;;3.20;2.90;;;4.70;99.90;;;;;;5071647;28;20528;-80
2020/12/24 10:42:59;;;;;;;3.20;3.00;;;4.70;99.90;;;;;;5073082;28;20181;-80
2020/12/24 10:45:25;;;;;;;2.90;2.57;;;4.70;99.90;;;;;;5073455;28;20773;-80
2020/12/24 10:47:52;;;;;;;5.00;3.10;;;4.70;99.90;;;;;;5068337;28;20415;-80
2020/12/24 10:50:18;;;;;;;3.10;2.53;;;4.80;99.90;;;;;;5069310;28;20441;-80
2020/12/24 10:52:45;;;;;;;3.33;3.00;;;4.80;99.90;;;;;;5071069;28;20934;-80
2020/12/24 10:55:10;;;;;;;4.73;3.40;;;4.80;99.90;;;;;;5073659;28;20957;-80
2020/12/24 10:57:37;;;;;;;4.60;3.93;;;4.80;99.90;;;;;;5072302;28;20579;-80
2020/12/24 11:00:07;;;;;;;3.87;3.10;;;4.70;99.90;;;;;;5052171;28;20930;-80
2020/12/24 11:02:33;;;;;;;3.50;3.20;;;4.70;99.90;;;;;;5069984;28;20524;-80
2020/12/24 11:04:59;;;;;;;4.47;3.60;;;4.70;99.90;;;;;;5070389;28;20418;-80
2020/12/24 11:07:25;;;;;;;7.37;4.17;;;4.80;99.90;;;;;;5064688;28;21006;-80
2020/12/24 11:09:50;;;;;;;5.00;4.40;;;4.80;99.90;;;;;;5071528;28;20180;-80
2020/12/24 11:12:16;;;;;;;4.63;4.23;;;4.80;99.90;;;;;;5068366;28;20456;-80
2020/12/24 11:14:42;;;;;;;6.40;4.13;;;4.80;99.90;;;;;;5070619;28;20261;-80
2020/12/24 11:17:07;;;;;;;9.37;5.33;;;4.90;99.90;;;;;;5067892;28;20320;-80
2020/12/24 11:19:33;;;;;;;9.93;5.47;;;4.90;99.90;;;;;;5069651;28;20264;-80
2020/12/24 11:21:59;;;;;;;8.50;5.60;;;4.90;99.90;;;;;;5049531;28;20191;-80
2020/12/24 11:24:24;;;;;;;12.90;6.00;;;4.90;99.90;;;;;;5074282;28;20172;-80
2020/12/24 11:26:50;;;;;;;9.60;6.10;;;5.00;99.90;;;;;;5069855;28;20183;-80
2020/12/24 11:29:16;;;;;;;8.30;5.80;;;5.00;99.90;;;;;;5069062;28;20172;-80
2020/12/24 11:31:42;;;;;;;14.13;6.70;;;5.00;99.90;;;;;;5069542;28;20206;-80
2020/12/24 11:34:08;;;;;;;8.97;6.50;;;5.00;99.90;;;;;;5052654;28;20173;-80
2020/12/24 11:36:34;;;;;;;10.67;6.20;;;5.00;99.90;;;;;;5051411;28;20176;-80
2020/12/24 11:39:01;;;;;;;10.80;7.80;;;5.10;99.90;;;;;;5070854;28;20731;-80
2020/12/24 11:41:29;;;;;;;18.50;7.60;;;5.10;99.90;;;;;;5069397;28;20423;-80
2020/12/24 11:43:55;;;;;;;11.00;7.23;;;5.10;99.90;;;;;;5053708;28;20427;-80
2020/12/24 11:46:24;;;;;;;9.60;6.67;;;5.10;99.90;;;;;;5069685;28;20415;-79
2020/12/24 11:48:50;;;;;;;14.83;7.00;;;5.10;99.90;;;;;;5069519;28;20484;-80
2020/12/24 11:51:17;;;;;;;9.20;6.60;;;5.10;99.90;;;;;;5052282;28;20433;-80
2020/12/24 11:53:45;;;;;;;6.17;5.50;;;5.20;99.90;;;;;;5070575;28;20465;-80
2020/12/24 11:56:16;;;;;;;14.97;6.50;;;5.20;99.90;;;;;;5055448;28;20485;-80
2020/12/24 11:58:43;;;;;;;8.23;6.47;;;5.30;99.90;;;;;;5071703;28;20430;-80
2020/12/24 12:01:08;;;;;;;10.63;6.03;;;5.30;99.90;;;;;;5072931;28;20487;-80
2020/12/24 12:03:35;;;;;;;11.90;6.70;;;5.40;99.90;;;;;;5071952;28;20458;-80
2020/12/24 12:06:00;;;;;;;10.80;5.27;;;5.30;99.90;;;;;;5073366;28;20184;-80
2020/12/24 12:08:28;;;;;;;8.50;5.97;;;5.30;99.90;;;;;;5070870;28;20469;-82
2020/12/24 12:10:54;;;;;;;8.07;6.33;;;5.40;99.90;;;;;;5050339;28;20190;-80
2020/12/24 12:13:20;;;;;;;6.00;5.33;;;5.40;99.90;;;;;;5055002;28;20452;-80
2020/12/24 12:15:46;;;;;;;8.03;5.50;;;5.40;99.90;;;;;;5073725;28;20218;-80
2020/12/24 12:18:11;;;;;;;7.37;5.30;;;5.40;99.90;;;;;;5054570;28;20196;-80
2020/12/24 12:20:41;;;;;;;13.40;6.53;;;5.40;99.90;;;;;;5067534;28;20584;-80
2020/12/24 12:23:06;;;;;;;13.93;6.50;;;5.50;99.90;;;;;;5071012;28;20168;-80
2020/12/24 12:25:32;;;;;;;9.83;6.13;;;5.50;99.90;;;;;;5054587;28;20779;-80
2020/12/24 12:27:58;;;;;;;9.40;6.80;;;5.50;99.90;;;;;;5069265;28;20195;-79
2020/12/24 12:30:24;;;;;;;7.70;5.53;;;5.60;99.90;;;;;;5048445;28;20307;-79
2020/12/24 12:32:50;;;;;;;12.17;6.23;;;5.60;99.90;;;;;;5067826;28;20197;-80
2020/12/24 12:35:16;;;;;;;9.80;6.13;;;5.60;99.90;;;;;;5028632;28;20173;-80
2020/12/24 12:37:42;;;;;;;8.97;5.77;;;5.50;99.90;;;;;;5067904;28;20425;-80
2020/12/24 12:40:08;;;;;;;10.97;6.80;;;5.60;99.90;;;;;;5070837;28;20886;-80
2020/12/24 12:42:34;;;;;;;16.13;6.97;;;5.60;99.90;;;;;;5071506;28;20183;-80
2020/12/24 12:45:00;;;;;;;11.97;6.77;;;5.60;99.90;;;;;;5068012;28;20242;-79
2020/12/24 12:47:26;;;;;;;10.27;6.37;;;5.70;99.90;;;;;;5069715;28;20422;-80
2020/12/24 12:49:52;;;;;;;10.30;5.70;;;5.60;99.90;;;;;;5065616;28;20192;-80
2020/12/24 12:52:19;;;;;;;10.43;6.07;;;5.60;99.90;;;;;;5069265;28;20465;-80
2020/12/24 12:54:45;;;;;;;8.00;5.73;;;5.60;99.90;;;;;;5070345;28;20768;-80
2020/12/24 12:57:11;;;;;;;8.43;5.13;;;5.60;99.90;;;;;;5069602;28;20414;-80
2020/12/24 12:59:37;;;;;;;9.17;5.40;;;5.60;99.90;;;;;;5065058;28;20419;-80
2020/12/24 13:02:03;;;;;;;9.30;5.50;;;5.60;99.90;;;;;;5051598;28;20930;-80